Bras d'Or Lakes: Past 24 Hour Conditions

 

St. John's Int'l Airport

04:30 PM NST 01 March 2015
Disclaimer

This table is a summary of hourly weather conditions for the past 24 hours.
Please note that these observations might not always be representative of weather conditions over their associated marine area.

Date / Time
(NST)
Wind(knots) Conditions Visibility(km) Pressure(kPa) Air tempC) Relative humidity(%) Dew pointC) Wind Chill
01 March 2015
16:30 WNW 18 gust 26 Light Snowshower 24 102.9 -4 66 -10 -12
15:30 W 18 gust 27 Light Snowshower 24 102.9 -4 68 -9 -12
14:30 W 20 gust 27 Partly Cloudy 24 102.9 -3 60 -10 -12
13:30 W 19 gust 28 Light Snowshower 16 102.9 -4 66 -9 -12
12:30 WSW 18 gust 25 Partly Cloudy 24 103.0 -4 63 -10 -12
11:30 W 19 Light Snowshower 16 103.1 -5 70 -9 -13
10:30 WSW 16 gust 22 Light Snowshower 16 103.2 -5 73 -10 -13
9:30 WSW 14 gust 20 Mainly Sunny 24 103.2 -7 62 -13 -15
8:30 W 14 Mainly Sunny 24 103.2 -7 61 -14 -16
7:30 W 12 gust 18 Mainly Sunny 24 103.2 -9 66 -14 -17
6:30 W 12 Mainly Clear 24 103.2 -10 69 -14 -18
5:30 W 18 Clear 24 103.2 -9 66 -14 -19
4:30 W 18 gust 24 Mainly Clear 24 103.2 -9 68 -14 -19
3:30 WNW 20 Mainly Clear 24 103.1 -9 67 -14 -19
2:30 WNW 22 gust 30 Clear 24 103.1 -9 62 -15 -19
1:30 W 19 gust 27 Mainly Clear 24 103.1 -9 68 -14 -19
0:30 W 22 gust 31 Mainly Clear 24 103.1 -9 70 -14 -20
28 February 2015
23:30 W 19 gust 25 Mainly Clear 24 103.1 -9 65 -15 -19
22:30 W 19 gust 28 Clear 24 103.1 -10 65 -16 -20
21:30 W 18 gust 26 Clear 24 103.0 -10 64 -16 -20
20:30 W 20 gust 27 Clear 24 103.0 -10 62 -16 -21
19:30 WNW 16 gust 25 Mainly Clear 24 103.0 -10 62 -16 -20
18:30 WNW 18 gust 28 Partly Cloudy 24 102.9 -10 62 -16 -20
17:30 WNW 23 Partly Cloudy 24 102.8 -10 57 -17 -20
16:30 WNW 19 gust 32 Partly Cloudy 24 102.8 -9 57 -16 -19

Zoom-in to make a selection

Map of Atlantic - Newfoundland marine weather areas Southwestern Grand Banks - 44138 Banquereau - 44139 Tail of the Bank - 44140 Nickerson Bank - 44251 Northeast Burgeo Bank - 44255 Blanc-Sablon Airport Cap Whittle Chevery Natashquan Airport Heath Point Miscou Island Grand Étang Ingonish Beach North Mountain St.Paul Island J.A. Douglas McCurdy Sydney Airport Charlottetown Airport East Point North Cape Argentia Bonavista Burgeo Cape Race Corner Brook Daniel's Harbour Englee Ferolle Point La Scie Port aux Basques Rocky Harbour Sagona Island St. Anthony Airport St. John's Int'l Airport St. Lawrence Stephenville Airport Twillingate Winterland Wreckhouse Cartwright Airport Mary's Harbour Grates Cove Pool's Island Marticot Island Long Pond Îles de la Madeleine Airport
Legend:
buoy Buoy
land station Land Station

Atlantic - Newfoundland Area

Another Region

What we are doing

Date modified: